createdAt,value
2018-09-05T13:07:44.246Z,22.90
2018-09-05T13:08:44.175Z,26.40
2018-09-05T13:09:44.130Z,25.20
2018-09-05T13:10:44.086Z,24.80
2018-09-05T13:11:44.029Z,25.40
2018-09-05T13:12:43.968Z,27.10
2018-09-05T13:13:43.934Z,26.60
2018-09-05T13:14:43.836Z,27.50
2018-09-05T13:15:43.773Z,27.30
2018-09-05T13:16:43.687Z,28.20
2018-09-05T13:17:43.609Z,27.20
2018-09-05T13:18:43.538Z,27.30
2018-09-05T13:19:43.480Z,27.00
2018-09-05T13:20:43.381Z,26.80
2018-09-05T13:21:43.376Z,27.00
2018-09-05T13:31:13.275Z,26.30
2018-09-05T13:32:13.235Z,27.20
2018-09-05T13:33:13.277Z,28.00
2018-09-05T13:34:13.203Z,27.70
2018-09-05T13:35:13.150Z,27.50
2018-09-05T13:36:13.121Z,28.50
2018-09-05T13:37:13.118Z,28.00
2018-09-05T13:38:13.042Z,27.50
2018-09-05T13:39:13.002Z,28.30
2018-09-05T13:40:12.968Z,27.90
2018-09-05T13:41:12.926Z,29.90
2018-09-05T13:42:12.895Z,29.10
2018-09-05T13:43:12.877Z,29.30
2018-09-05T13:44:12.806Z,28.80
2018-09-05T13:45:12.848Z,29.60
2018-09-05T13:46:19.745Z,29.60
2018-09-05T13:47:12.681Z,29.10
2018-09-05T13:48:12.654Z,29.30
2018-09-05T13:49:12.623Z,27.90
2018-09-05T13:50:12.566Z,28.00
2018-09-05T13:51:12.536Z,27.70
2018-09-05T13:52:12.510Z,28.20
2018-09-05T13:53:12.439Z,28.50
2018-09-05T13:54:12.393Z,27.70
2018-09-05T13:55:12.356Z,28.90
2018-09-05T13:56:12.343Z,28.80
2018-09-05T13:57:12.268Z,30.00
2018-09-05T13:58:12.261Z,28.60
2018-09-05T13:59:12.184Z,29.10
2018-09-05T14:00:12.146Z,27.80
2018-09-05T14:01:12.099Z,28.70
2018-09-05T14:02:12.063Z,28.40
2018-09-05T14:03:12.016Z,28.10
2018-09-05T14:04:12.008Z,30.30
2018-09-05T14:05:11.938Z,30.00
2018-09-05T14:06:11.900Z,30.10
2018-09-05T14:07:11.935Z,30.80
2018-09-05T14:08:11.890Z,28.90
2018-09-05T14:09:11.850Z,28.90
2018-09-05T14:10:11.863Z,29.00
2018-09-05T14:11:11.766Z,28.90
2018-09-05T14:12:11.727Z,27.80
2018-09-05T14:13:11.684Z,25.90
2018-09-05T14:14:11.636Z,27.60
2018-09-05T14:15:11.600Z,26.60
2018-09-05T14:16:11.570Z,26.80
2018-09-05T14:17:11.500Z,25.80
2018-09-05T14:18:11.456Z,26.30
2018-09-05T14:19:11.413Z,26.30
2018-09-05T14:20:11.391Z,26.40
2018-09-05T14:21:11.320Z,26.50
2018-09-05T14:22:11.289Z,26.80
2018-09-05T14:23:11.255Z,25.70
2018-09-05T14:24:11.181Z,26.70
2018-09-05T14:25:11.139Z,25.90
2018-09-05T14:26:11.090Z,28.10
2018-09-05T14:27:11.142Z,28.40
2018-09-05T14:28:10.987Z,28.70
2018-09-05T14:29:10.937Z,29.20
2018-09-05T14:30:10.903Z,30.20
2018-09-05T14:31:10.825Z,30.20
2018-09-05T14:32:10.763Z,31.00
2018-09-05T14:33:10.736Z,30.90
2018-09-05T14:34:10.652Z,29.60
2018-09-05T14:35:10.679Z,29.40
2018-09-05T14:36:10.548Z,29.90
2018-09-05T14:37:10.493Z,28.10
2018-09-05T14:38:10.448Z,29.50
2018-09-05T14:39:10.400Z,29.10
2018-09-05T14:40:10.353Z,30.30
2018-09-05T14:41:10.267Z,30.60
2018-09-05T14:42:10.212Z,30.50
2018-09-05T14:43:10.167Z,29.30
2018-09-05T14:44:10.105Z,29.60
2018-09-05T14:45:10.092Z,29.60
2018-09-05T14:46:10.064Z,29.40
2018-09-05T14:47:09.952Z,30.10
2018-09-05T14:48:09.951Z,30.60
2018-09-05T14:49:09.857Z,31.30
2018-09-05T14:50:09.803Z,31.70
2018-09-05T14:51:09.782Z,31.40
2018-09-05T14:52:09.715Z,30.40
2018-09-05T14:53:09.660Z,31.00
2018-09-05T14:54:09.672Z,30.80
2018-09-05T14:55:09.555Z,30.00
2018-09-05T14:56:09.504Z,30.90
2018-09-05T14:57:09.462Z,30.60
2018-09-05T14:58:09.392Z,30.90
2018-09-05T14:59:09.344Z,29.90
2018-09-05T15:00:09.292Z,30.20
2018-09-05T15:01:09.238Z,30.80
2018-09-05T15:02:09.182Z,29.30
